ADJ weather

CLOSED RAF Castletown
Caithness, Scotland, United Kingdom

Public forecast

Using degrees Celsius for public forecast. Weather courtesy of forecast.io.

Closest aviation weather report (METAR) to RAF Castletown

Closest report is Wick Airport, 11.0 nm (20.4 km) SE. Retrieved 2019/12/15 15:20 UTC (7 minutes ago):

EGPC 151520Z 22007KT 190V260 9999 FEW025 03/M00 Q0982

Closest aviation forecast (TAF) to RAF Castletown

Closest forecast is RAF Lossiemouth, 52.8 nm (97.8 km) S. Retrieved 2019/12/15 15:30 UTC (0 seconds ago):

TAF TAF EGQS 151315Z 1515/1609 21007KT 9999 SCT030